sensor_id;sensor_type;location;lat;lon;timestamp;temperature;humidity
11152;DHT22;5630;49.342;10.802;2023-08-21T00:00:21;24.00;99.90
11152;DHT22;5630;49.342;10.802;2023-08-21T00:02:47;24.00;99.90
11152;DHT22;5630;49.342;10.802;2023-08-21T00:05:12;23.90;99.90
11152;DHT22;5630;49.342;10.802;2023-08-21T00:07:38;23.90;99.90
11152;DHT22;5630;49.342;10.802;2023-08-21T00:10:04;23.90;99.90
11152;DHT22;5630;49.342;10.802;2023-08-21T00:12:30;23.90;99.90
11152;DHT22;5630;49.342;10.802;2023-08-21T00:14:56;23.90;99.90
11152;DHT22;5630;49.342;10.802;2023-08-21T00:17:21;23.90;99.90
11152;DHT22;5630;49.342;10.802;2023-08-21T00:19:47;24.00;99.90
11152;DHT22;5630;49.342;10.802;2023-08-21T00:22:12;24.00;99.90
11152;DHT22;5630;49.342;10.802;2023-08-21T00:24:38;24.00;99.90
11152;DHT22;5630;49.342;10.802;2023-08-21T00:27:03;24.00;99.90
11152;DHT22;5630;49.342;10.802;2023-08-21T00:29:29;24.00;99.90
11152;DHT22;5630;49.342;10.802;2023-08-21T00:31:55;23.90;99.90
11152;DHT22;5630;49.342;10.802;2023-08-21T00:34:20;23.90;99.90
11152;DHT22;5630;49.342;10.802;2023-08-21T00:36:46;23.90;99.90
11152;DHT22;5630;49.342;10.802;2023-08-21T00:39:12;23.80;99.90
11152;DHT22;5630;49.342;10.802;2023-08-21T00:41:38;23.80;99.90
11152;DHT22;5630;49.342;10.802;2023-08-21T00:44:04;23.80;99.90
11152;DHT22;5630;49.342;10.802;2023-08-21T00:46:30;23.80;99.90
11152;DHT22;5630;49.342;10.802;2023-08-21T00:48:56;23.70;99.90
11152;DHT22;5630;49.342;10.802;2023-08-21T00:51:23;23.80;99.90
11152;DHT22;5630;49.342;10.802;2023-08-21T00:53:48;23.70;99.90
11152;DHT22;5630;49.342;10.802;2023-08-21T00:56:15;23.70;99.90
11152;DHT22;5630;49.342;10.802;2023-08-21T00:58:41;23.70;99.90
11152;DHT22;5630;49.342;10.802;2023-08-21T01:01:07;23.70;99.90
11152;DHT22;5630;49.342;10.802;2023-08-21T01:03:32;23.70;99.90
11152;DHT22;5630;49.342;10.802;2023-08-21T01:05:58;23.70;99.90
11152;DHT22;5630;49.342;10.802;2023-08-21T01:08:41;23.70;99.90
11152;DHT22;5630;49.342;10.802;2023-08-21T01:11:21;23.70;99.90
11152;DHT22;5630;49.342;10.802;2023-08-21T01:14:13;23.70;99.90
11152;DHT22;5630;49.342;10.802;2023-08-21T01:16:43;23.70;99.90
11152;DHT22;5630;49.342;10.802;2023-08-21T01:19:19;23.60;99.90
11152;DHT22;5630;49.342;10.802;2023-08-21T01:21:50;23.70;99.90
11152;DHT22;5630;49.342;10.802;2023-08-21T01:24:19;23.70;99.90
11152;DHT22;5630;49.342;10.802;2023-08-21T01:26:45;23.70;99.90
11152;DHT22;5630;49.342;10.802;2023-08-21T01:29:10;23.70;99.90
11152;DHT22;5630;49.342;10.802;2023-08-21T01:31:37;23.60;99.90
11152;DHT22;5630;49.342;10.802;2023-08-21T01:34:06;23.60;99.90
11152;DHT22;5630;49.342;10.802;2023-08-21T01:36:34;23.60;99.90
11152;DHT22;5630;49.342;10.802;2023-08-21T01:39:00;23.50;99.90
11152;DHT22;5630;49.342;10.802;2023-08-21T01:41:26;23.60;99.90
11152;DHT22;5630;49.342;10.802;2023-08-21T01:43:51;23.60;99.90
11152;DHT22;5630;49.342;10.802;2023-08-21T01:46:17;23.50;99.90
11152;DHT22;5630;49.342;10.802;2023-08-21T01:48:43;23.50;99.90
11152;DHT22;5630;49.342;10.802;2023-08-21T01:51:08;23.50;99.90
11152;DHT22;5630;49.342;10.802;2023-08-21T01:53:34;23.50;99.90
11152;DHT22;5630;49.342;10.802;2023-08-21T01:55:59;23.50;99.90
11152;DHT22;5630;49.342;10.802;2023-08-21T01:58:25;23.50;99.90
11152;DHT22;5630;49.342;10.802;2023-08-21T02:00:51;23.50;99.90
11152;DHT22;5630;49.342;10.802;2023-08-21T02:03:16;23.50;99.90
11152;DHT22;5630;49.342;10.802;2023-08-21T02:05:42;23.50;99.90
11152;DHT22;5630;49.342;10.802;2023-08-21T02:08:13;23.40;99.90
11152;DHT22;5630;49.342;10.802;2023-08-21T02:10:49;23.50;99.90
11152;DHT22;5630;49.342;10.802;2023-08-21T02:13:15;23.50;99.90
11152;DHT22;5630;49.342;10.802;2023-08-21T02:15:40;23.40;99.90
11152;DHT22;5630;49.342;10.802;2023-08-21T02:18:06;23.40;99.90
11152;DHT22;5630;49.342;10.802;2023-08-21T02:20:32;23.40;99.90
11152;DHT22;5630;49.342;10.802;2023-08-21T02:22:57;23.40;99.90
11152;DHT22;5630;49.342;10.802;2023-08-21T02:25:23;23.30;99.90
11152;DHT22;5630;49.342;10.802;2023-08-21T02:27:48;23.30;99.90
11152;DHT22;5630;49.342;10.802;2023-08-21T02:30:14;23.30;99.90
11152;DHT22;5630;49.342;10.802;2023-08-21T02:32:39;23.30;99.90
11152;DHT22;5630;49.342;10.802;2023-08-21T02:35:06;23.30;99.90
11152;DHT22;5630;49.342;10.802;2023-08-21T02:37:32;23.20;99.90
11152;DHT22;5630;49.342;10.802;2023-08-21T02:39:58;23.20;99.90
11152;DHT22;5630;49.342;10.802;2023-08-21T02:42:25;23.20;99.90
11152;DHT22;5630;49.342;10.802;2023-08-21T02:44:50;23.20;99.90
11152;DHT22;5630;49.342;10.802;2023-08-21T02:47:16;23.10;99.90
11152;DHT22;5630;49.342;10.802;2023-08-21T02:49:41;23.10;99.90
11152;DHT22;5630;49.342;10.802;2023-08-21T02:52:07;23.10;99.90
11152;DHT22;5630;49.342;10.802;2023-08-21T02:54:33;23.10;99.90
11152;DHT22;5630;49.342;10.802;2023-08-21T02:56:58;23.10;99.90
11152;DHT22;5630;49.342;10.802;2023-08-21T02:59:24;23.10;99.90
11152;DHT22;5630;49.342;10.802;2023-08-21T03:01:49;23.00;99.90
11152;DHT22;5630;49.342;10.802;2023-08-21T03:04:15;23.00;99.90
11152;DHT22;5630;49.342;10.802;2023-08-21T03:06:41;23.00;99.90
11152;DHT22;5630;49.342;10.802;2023-08-21T03:09:06;22.90;99.90
11152;DHT22;5630;49.342;10.802;2023-08-21T03:11:32;22.90;99.90
11152;DHT22;5630;49.342;10.802;2023-08-21T03:13:57;22.90;99.90
11152;DHT22;5630;49.342;10.802;2023-08-21T03:16:23;22.90;99.90
11152;DHT22;5630;49.342;10.802;2023-08-21T03:18:59;22.90;99.90
11152;DHT22;5630;49.342;10.802;2023-08-21T03:21:25;22.90;99.90
11152;DHT22;5630;49.342;10.802;2023-08-21T03:23:56;22.90;99.90
11152;DHT22;5630;49.342;10.802;2023-08-21T03:26:22;22.80;99.90
11152;DHT22;5630;49.342;10.802;2023-08-21T03:28:48;22.80;99.90
11152;DHT22;5630;49.342;10.802;2023-08-21T03:31:14;22.80;99.90
11152;DHT22;5630;49.342;10.802;2023-08-21T03:33:40;22.80;99.90
11152;DHT22;5630;49.342;10.802;2023-08-21T03:36:05;22.80;99.90
11152;DHT22;5630;49.342;10.802;2023-08-21T03:38:31;22.80;99.90
11152;DHT22;5630;49.342;10.802;2023-08-21T03:40:57;22.80;99.90
11152;DHT22;5630;49.342;10.802;2023-08-21T03:43:22;22.80;99.90
11152;DHT22;5630;49.342;10.802;2023-08-21T03:45:48;22.70;99.90
11152;DHT22;5630;49.342;10.802;2023-08-21T03:48:13;22.80;99.90
11152;DHT22;5630;49.342;10.802;2023-08-21T03:50:39;22.80;99.90
11152;DHT22;5630;49.342;10.802;2023-08-21T03:53:05;22.80;99.90
11152;DHT22;5630;49.342;10.802;2023-08-21T03:55:30;22.70;99.90
11152;DHT22;5630;49.342;10.802;2023-08-21T03:57:56;22.70;99.90
11152;DHT22;5630;49.342;10.802;2023-08-21T04:00:22;22.70;99.90
11152;DHT22;5630;49.342;10.802;2023-08-21T04:02:47;22.70;99.90
11152;DHT22;5630;49.342;10.802;2023-08-21T04:05:13;22.70;99.90
11152;DHT22;5630;49.342;10.802;2023-08-21T04:07:39;22.70;99.90
11152;DHT22;5630;49.342;10.802;2023-08-21T04:10:05;22.60;99.90
11152;DHT22;5630;49.342;10.802;2023-08-21T04:12:31;22.60;99.90
11152;DHT22;5630;49.342;10.802;2023-08-21T04:14:57;22.60;99.90
11152;DHT22;5630;49.342;10.802;2023-08-21T04:17:23;22.50;99.90
11152;DHT22;5630;49.342;10.802;2023-08-21T04:19:50;22.60;99.90
11152;DHT22;5630;49.342;10.802;2023-08-21T04:22:15;22.50;99.90
11152;DHT22;5630;49.342;10.802;2023-08-21T04:24:42;22.50;99.90
11152;DHT22;5630;49.342;10.802;2023-08-21T04:27:08;22.50;99.90
11152;DHT22;5630;49.342;10.802;2023-08-21T04:29:35;22.50;99.90
11152;DHT22;5630;49.342;10.802;2023-08-21T04:32:01;22.50;99.90
11152;DHT22;5630;49.342;10.802;2023-08-21T04:34:27;22.50;99.90
11152;DHT22;5630;49.342;10.802;2023-08-21T04:36:52;22.50;99.90
11152;DHT22;5630;49.342;10.802;2023-08-21T04:39:18;22.40;99.90
11152;DHT22;5630;49.342;10.802;2023-08-21T04:41:44;22.40;99.90
11152;DHT22;5630;49.342;10.802;2023-08-21T04:44:09;22.40;99.90
11152;DHT22;5630;49.342;10.802;2023-08-21T04:46:35;22.40;99.90
11152;DHT22;5630;49.342;10.802;2023-08-21T04:49:00;22.40;99.90
11152;DHT22;5630;49.342;10.802;2023-08-21T04:51:26;22.40;99.90
11152;DHT22;5630;49.342;10.802;2023-08-21T04:53:51;22.40;99.90
11152;DHT22;5630;49.342;10.802;2023-08-21T04:56:17;22.40;99.90
11152;DHT22;5630;49.342;10.802;2023-08-21T04:58:43;22.30;99.90
11152;DHT22;5630;49.342;10.802;2023-08-21T05:01:08;22.30;99.90
11152;DHT22;5630;49.342;10.802;2023-08-21T05:03:34;22.30;99.90
11152;DHT22;5630;49.342;10.802;2023-08-21T05:06:00;22.30;99.90
11152;DHT22;5630;49.342;10.802;2023-08-21T05:08:26;22.40;99.90
11152;DHT22;5630;49.342;10.802;2023-08-21T05:10:58;22.40;99.90
11152;DHT22;5630;49.342;10.802;2023-08-21T05:13:24;22.50;99.90
11152;DHT22;5630;49.342;10.802;2023-08-21T05:15:54;22.50;99.90
11152;DHT22;5630;49.342;10.802;2023-08-21T05:18:20;22.60;99.90
11152;DHT22;5630;49.342;10.802;2023-08-21T05:20:47;22.50;99.90
11152;DHT22;5630;49.342;10.802;2023-08-21T05:23:13;22.50;99.90
11152;DHT22;5630;49.342;10.802;2023-08-21T05:25:39;22.50;99.90
11152;DHT22;5630;49.342;10.802;2023-08-21T05:28:05;22.60;99.90
11152;DHT22;5630;49.342;10.802;2023-08-21T05:30:31;22.70;99.90
11152;DHT22;5630;49.342;10.802;2023-08-21T05:32:57;22.70;99.90
11152;DHT22;5630;49.342;10.802;2023-08-21T05:35:23;22.80;99.90
11152;DHT22;5630;49.342;10.802;2023-08-21T05:37:48;22.90;99.90
11152;DHT22;5630;49.342;10.802;2023-08-21T05:40:14;22.90;99.90
11152;DHT22;5630;49.342;10.802;2023-08-21T05:42:40;23.00;99.90
11152;DHT22;5630;49.342;10.802;2023-08-21T05:45:06;23.00;99.90
11152;DHT22;5630;49.342;10.802;2023-08-21T05:47:31;23.10;99.90
11152;DHT22;5630;49.342;10.802;2023-08-21T05:49:57;23.20;99.90
11152;DHT22;5630;49.342;10.802;2023-08-21T05:52:23;23.20;99.90
11152;DHT22;5630;49.342;10.802;2023-08-21T05:54:49;23.30;99.90
11152;DHT22;5630;49.342;10.802;2023-08-21T05:57:14;23.30;99.90
11152;DHT22;5630;49.342;10.802;2023-08-21T05:59:46;23.30;99.90
11152;DHT22;5630;49.342;10.802;2023-08-21T06:02:13;23.30;99.90
11152;DHT22;5630;49.342;10.802;2023-08-21T06:04:42;23.30;99.90
11152;DHT22;5630;49.342;10.802;2023-08-21T06:07:08;23.30;99.90
11152;DHT22;5630;49.342;10.802;2023-08-21T06:09:34;23.30;99.90
11152;DHT22;5630;49.342;10.802;2023-08-21T06:12:01;23.30;99.90
11152;DHT22;5630;49.342;10.802;2023-08-21T06:14:27;23.30;99.90
11152;DHT22;5630;49.342;10.802;2023-08-21T06:17:02;23.30;99.90
11152;DHT22;5630;49.342;10.802;2023-08-21T06:19:28;23.30;99.90
11152;DHT22;5630;49.342;10.802;2023-08-21T06:21:55;23.40;99.90
11152;DHT22;5630;49.342;10.802;2023-08-21T06:24:21;23.40;99.90
11152;DHT22;5630;49.342;10.802;2023-08-21T06:26:46;23.50;99.90
11152;DHT22;5630;49.342;10.802;2023-08-21T06:29:12;23.50;99.90
11152;DHT22;5630;49.342;10.802;2023-08-21T06:31:37;23.50;99.90
11152;DHT22;5630;49.342;10.802;2023-08-21T06:34:03;23.50;99.90
11152;DHT22;5630;49.342;10.802;2023-08-21T06:36:29;23.60;99.90
11152;DHT22;5630;49.342;10.802;2023-08-21T06:38:55;23.60;99.90
11152;DHT22;5630;49.342;10.802;2023-08-21T06:41:21;23.70;99.90
11152;DHT22;5630;49.342;10.802;2023-08-21T06:43:46;23.70;99.90
11152;DHT22;5630;49.342;10.802;2023-08-21T06:46:12;23.70;99.90
11152;DHT22;5630;49.342;10.802;2023-08-21T06:48:39;23.80;99.90
11152;DHT22;5630;49.342;10.802;2023-08-21T06:51:08;23.90;99.90
11152;DHT22;5630;49.342;10.802;2023-08-21T06:53:34;23.90;99.90
11152;DHT22;5630;49.342;10.802;2023-08-21T06:55:59;24.00;99.90
11152;DHT22;5630;49.342;10.802;2023-08-21T06:58:25;24.10;99.90
11152;DHT22;5630;49.342;10.802;2023-08-21T07:00:52;24.20;99.90
11152;DHT22;5630;49.342;10.802;2023-08-21T07:03:18;24.30;99.90
11152;DHT22;5630;49.342;10.802;2023-08-21T07:05:46;24.30;99.90
11152;DHT22;5630;49.342;10.802;2023-08-21T07:08:18;24.30;99.90
11152;DHT22;5630;49.342;10.802;2023-08-21T07:10:44;24.40;99.90
11152;DHT22;5630;49.342;10.802;2023-08-21T07:13:10;24.40;99.90
11152;DHT22;5630;49.342;10.802;2023-08-21T07:15:35;24.40;99.90
11152;DHT22;5630;49.342;10.802;2023-08-21T07:18:01;24.50;99.90
11152;DHT22;5630;49.342;10.802;2023-08-21T07:20:26;24.50;99.90
11152;DHT22;5630;49.342;10.802;2023-08-21T07:22:52;24.50;99.90
11152;DHT22;5630;49.342;10.802;2023-08-21T07:25:18;24.50;99.90
11152;DHT22;5630;49.342;10.802;2023-08-21T07:27:43;24.50;99.90
11152;DHT22;5630;49.342;10.802;2023-08-21T07:30:09;24.60;99.90
11152;DHT22;5630;49.342;10.802;2023-08-21T07:32:36;24.70;99.90
11152;DHT22;5630;49.342;10.802;2023-08-21T07:35:01;24.80;99.90
11152;DHT22;5630;49.342;10.802;2023-08-21T07:37:27;24.90;99.90
11152;DHT22;5630;49.342;10.802;2023-08-21T07:39:53;25.00;99.90
11152;DHT22;5630;49.342;10.802;2023-08-21T07:42:22;25.10;99.90
11152;DHT22;5630;49.342;10.802;2023-08-21T07:44:47;25.30;99.90
11152;DHT22;5630;49.342;10.802;2023-08-21T07:47:13;25.40;99.90
11152;DHT22;5630;49.342;10.802;2023-08-21T07:49:38;25.50;99.90
11152;DHT22;5630;49.342;10.802;2023-08-21T07:52:04;25.70;99.90
11152;DHT22;5630;49.342;10.802;2023-08-21T07:54:30;25.90;99.90
11152;DHT22;5630;49.342;10.802;2023-08-21T07:56:56;26.00;99.90
11152;DHT22;5630;49.342;10.802;2023-08-21T07:59:21;26.20;99.90
11152;DHT22;5630;49.342;10.802;2023-08-21T08:01:47;26.20;99.90
11152;DHT22;5630;49.342;10.802;2023-08-21T08:04:13;26.40;99.90
11152;DHT22;5630;49.342;10.802;2023-08-21T08:06:38;26.50;99.90
11152;DHT22;5630;49.342;10.802;2023-08-21T08:09:04;26.50;99.90
11152;DHT22;5630;49.342;10.802;2023-08-21T08:11:30;26.60;99.90
11152;DHT22;5630;49.342;10.802;2023-08-21T08:13:55;26.80;99.90
11152;DHT22;5630;49.342;10.802;2023-08-21T08:16:21;27.10;99.90
11152;DHT22;5630;49.342;10.802;2023-08-21T08:18:47;27.20;99.90
11152;DHT22;5630;49.342;10.802;2023-08-21T08:21:12;27.30;99.90
11152;DHT22;5630;49.342;10.802;2023-08-21T08:23:38;27.40;99.90
11152;DHT22;5630;49.342;10.802;2023-08-21T08:26:03;27.70;99.90
11152;DHT22;5630;49.342;10.802;2023-08-21T08:28:29;27.80;99.90
11152;DHT22;5630;49.342;10.802;2023-08-21T08:30:55;28.00;99.90
11152;DHT22;5630;49.342;10.802;2023-08-21T08:33:20;28.20;99.90
11152;DHT22;5630;49.342;10.802;2023-08-21T08:35:46;28.40;99.90
11152;DHT22;5630;49.342;10.802;2023-08-21T08:38:11;28.40;99.90
11152;DHT22;5630;49.342;10.802;2023-08-21T08:40:44;28.50;99.90
11152;DHT22;5630;49.342;10.802;2023-08-21T08:43:12;28.60;99.90
11152;DHT22;5630;49.342;10.802;2023-08-21T08:45:38;28.80;99.90
11152;DHT22;5630;49.342;10.802;2023-08-21T08:48:05;29.00;99.90
11152;DHT22;5630;49.342;10.802;2023-08-21T08:50:32;29.20;99.90
11152;DHT22;5630;49.342;10.802;2023-08-21T08:52:58;29.20;99.90
11152;DHT22;5630;49.342;10.802;2023-08-21T08:55:25;29.40;99.90
11152;DHT22;5630;49.342;10.802;2023-08-21T08:57:52;29.50;99.90
11152;DHT22;5630;49.342;10.802;2023-08-21T09:00:18;29.60;99.90
11152;DHT22;5630;49.342;10.802;2023-08-21T09:02:43;29.60;99.90
11152;DHT22;5630;49.342;10.802;2023-08-21T09:05:09;29.80;99.90
11152;DHT22;5630;49.342;10.802;2023-08-21T09:07:35;30.00;99.90
11152;DHT22;5630;49.342;10.802;2023-08-21T09:10:02;30.00;99.90
11152;DHT22;5630;49.342;10.802;2023-08-21T09:12:31;30.00;99.90
11152;DHT22;5630;49.342;10.802;2023-08-21T09:14:58;30.10;99.90
11152;DHT22;5630;49.342;10.802;2023-08-21T09:17:25;30.20;99.90
11152;DHT22;5630;49.342;10.802;2023-08-21T09:19:51;30.40;99.90
11152;DHT22;5630;49.342;10.802;2023-08-21T09:22:18;30.50;99.90
11152;DHT22;5630;49.342;10.802;2023-08-21T09:27:38;30.80;99.90
11152;DHT22;5630;49.342;10.802;2023-08-21T09:30:13;30.90;99.90
11152;DHT22;5630;49.342;10.802;2023-08-21T09:32:59;31.00;99.90
11152;DHT22;5630;49.342;10.802;2023-08-21T09:35:32;31.20;99.90
11152;DHT22;5630;49.342;10.802;2023-08-21T09:37:58;31.30;99.90
11152;DHT22;5630;49.342;10.802;2023-08-21T09:40:24;31.60;99.90
11152;DHT22;5630;49.342;10.802;2023-08-21T09:42:53;31.60;99.90
11152;DHT22;5630;49.342;10.802;2023-08-21T09:45:23;31.70;99.90
11152;DHT22;5630;49.342;10.802;2023-08-21T09:47:51;31.90;99.90
11152;DHT22;5630;49.342;10.802;2023-08-21T09:50:18;31.90;99.90
11152;DHT22;5630;49.342;10.802;2023-08-21T09:52:45;31.80;99.90
11152;DHT22;5630;49.342;10.802;2023-08-21T09:55:13;31.80;99.90
11152;DHT22;5630;49.342;10.802;2023-08-21T09:57:39;31.90;99.90
11152;DHT22;5630;49.342;10.802;2023-08-21T10:00:07;31.90;99.90
11152;DHT22;5630;49.342;10.802;2023-08-21T10:02:50;32.40;99.90
11152;DHT22;5630;49.342;10.802;2023-08-21T10:05:19;32.40;99.90
11152;DHT22;5630;49.342;10.802;2023-08-21T10:07:49;32.40;99.90
11152;DHT22;5630;49.342;10.802;2023-08-21T10:10:18;32.50;99.90
11152;DHT22;5630;49.342;10.802;2023-08-21T10:12:44;32.40;99.90
11152;DHT22;5630;49.342;10.802;2023-08-21T10:15:10;32.30;99.90
11152;DHT22;5630;49.342;10.802;2023-08-21T10:17:36;32.20;99.90
11152;DHT22;5630;49.342;10.802;2023-08-21T10:20:03;32.20;99.90
11152;DHT22;5630;49.342;10.802;2023-08-21T10:22:45;32.30;99.90
11152;DHT22;5630;49.342;10.802;2023-08-21T10:25:23;32.50;99.90
11152;DHT22;5630;49.342;10.802;2023-08-21T10:27:53;32.70;99.90
11152;DHT22;5630;49.342;10.802;2023-08-21T10:30:24;32.80;99.90
11152;DHT22;5630;49.342;10.802;2023-08-21T10:32:52;33.00;99.90
11152;DHT22;5630;49.342;10.802;2023-08-21T10:35:20;33.20;99.90
11152;DHT22;5630;49.342;10.802;2023-08-21T10:40:39;33.40;99.90
11152;DHT22;5630;49.342;10.802;2023-08-21T10:43:36;33.30;99.90
11152;DHT22;5630;49.342;10.802;2023-08-21T10:45:54;33.30;99.90
11152;DHT22;5630;49.342;10.802;2023-08-21T10:48:22;33.50;99.90
11152;DHT22;5630;49.342;10.802;2023-08-21T10:50:48;33.60;99.90
11152;DHT22;5630;49.342;10.802;2023-08-21T10:53:14;33.20;99.90
11152;DHT22;5630;49.342;10.802;2023-08-21T10:55:39;33.60;99.90
11152;DHT22;5630;49.342;10.802;2023-08-21T10:58:05;33.20;99.90
11152;DHT22;5630;49.342;10.802;2023-08-21T11:00:34;33.20;99.90
11152;DHT22;5630;49.342;10.802;2023-08-21T11:03:00;33.20;99.90
11152;DHT22;5630;49.342;10.802;2023-08-21T11:05:26;33.00;99.90
11152;DHT22;5630;49.342;10.802;2023-08-21T11:07:51;33.40;99.90
11152;DHT22;5630;49.342;10.802;2023-08-21T11:10:22;33.60;99.90
11152;DHT22;5630;49.342;10.802;2023-08-21T11:12:52;33.70;99.90
11152;DHT22;5630;49.342;10.802;2023-08-21T11:15:18;33.90;99.90
11152;DHT22;5630;49.342;10.802;2023-08-21T11:18:01;34.10;99.90
11152;DHT22;5630;49.342;10.802;2023-08-21T11:20:30;34.20;99.90
11152;DHT22;5630;49.342;10.802;2023-08-21T11:23:00;34.20;99.90
11152;DHT22;5630;49.342;10.802;2023-08-21T11:25:28;34.10;99.90
11152;DHT22;5630;49.342;10.802;2023-08-21T11:27:55;34.20;99.90
11152;DHT22;5630;49.342;10.802;2023-08-21T11:30:22;34.10;99.90
11152;DHT22;5630;49.342;10.802;2023-08-21T11:32:49;34.50;99.90
11152;DHT22;5630;49.342;10.802;2023-08-21T11:35:15;34.40;99.90
11152;DHT22;5630;49.342;10.802;2023-08-21T11:37:44;34.30;99.90
11152;DHT22;5630;49.342;10.802;2023-08-21T11:40:12;34.60;99.90
11152;DHT22;5630;49.342;10.802;2023-08-21T11:42:39;34.70;99.90
11152;DHT22;5630;49.342;10.802;2023-08-21T11:45:05;34.60;99.90
11152;DHT22;5630;49.342;10.802;2023-08-21T11:47:32;34.50;99.90
11152;DHT22;5630;49.342;10.802;2023-08-21T11:50:03;34.40;99.90
11152;DHT22;5630;49.342;10.802;2023-08-21T11:52:30;34.40;99.90
11152;DHT22;5630;49.342;10.802;2023-08-21T11:54:57;34.50;99.90
11152;DHT22;5630;49.342;10.802;2023-08-21T11:57:23;34.70;99.90
11152;DHT22;5630;49.342;10.802;2023-08-21T11:59:53;34.60;99.90
11152;DHT22;5630;49.342;10.802;2023-08-21T12:02:28;34.20;99.90
11152;DHT22;5630;49.342;10.802;2023-08-21T12:05:04;34.10;99.90
11152;DHT22;5630;49.342;10.802;2023-08-21T12:07:34;33.50;99.90
11152;DHT22;5630;49.342;10.802;2023-08-21T12:09:59;33.10;99.90
11152;DHT22;5630;49.342;10.802;2023-08-21T12:12:25;33.00;99.90
11152;DHT22;5630;49.342;10.802;2023-08-21T12:14:51;33.40;99.90
11152;DHT22;5630;49.342;10.802;2023-08-21T12:17:16;33.70;99.90
11152;DHT22;5630;49.342;10.802;2023-08-21T12:19:42;34.00;99.90
11152;DHT22;5630;49.342;10.802;2023-08-21T12:22:09;34.20;99.90
11152;DHT22;5630;49.342;10.802;2023-08-21T12:24:34;34.10;99.90
11152;DHT22;5630;49.342;10.802;2023-08-21T12:27:00;33.50;99.90
11152;DHT22;5630;49.342;10.802;2023-08-21T12:29:26;33.30;99.90
11152;DHT22;5630;49.342;10.802;2023-08-21T12:31:52;32.90;99.90
11152;DHT22;5630;49.342;10.802;2023-08-21T12:34:18;33.00;99.90
11152;DHT22;5630;49.342;10.802;2023-08-21T12:36:43;32.80;99.90
11152;DHT22;5630;49.342;10.802;2023-08-21T12:39:09;32.70;99.90
11152;DHT22;5630;49.342;10.802;2023-08-21T12:41:35;32.70;99.90
11152;DHT22;5630;49.342;10.802;2023-08-21T12:44:01;32.50;99.90
11152;DHT22;5630;49.342;10.802;2023-08-21T12:46:28;32.30;99.90
11152;DHT22;5630;49.342;10.802;2023-08-21T12:48:55;32.20;99.90
11152;DHT22;5630;49.342;10.802;2023-08-21T12:51:21;31.90;99.90
11152;DHT22;5630;49.342;10.802;2023-08-21T12:53:46;31.60;99.90
11152;DHT22;5630;49.342;10.802;2023-08-21T12:56:12;31.50;99.90
11152;DHT22;5630;49.342;10.802;2023-08-21T12:58:38;31.40;99.90
11152;DHT22;5630;49.342;10.802;2023-08-21T13:01:03;31.50;99.90
11152;DHT22;5630;49.342;10.802;2023-08-21T13:03:30;31.70;99.90
11152;DHT22;5630;49.342;10.802;2023-08-21T13:05:56;31.60;99.90
11152;DHT22;5630;49.342;10.802;2023-08-21T13:08:22;31.60;99.90
11152;DHT22;5630;49.342;10.802;2023-08-21T13:10:47;32.10;99.90
11152;DHT22;5630;49.342;10.802;2023-08-21T13:13:13;32.50;99.90
11152;DHT22;5630;49.342;10.802;2023-08-21T13:15:39;32.80;99.90
11152;DHT22;5630;49.342;10.802;2023-08-21T13:18:04;33.20;99.90
11152;DHT22;5630;49.342;10.802;2023-08-21T13:20:30;32.80;99.90
11152;DHT22;5630;49.342;10.802;2023-08-21T13:22:56;32.60;99.90
11152;DHT22;5630;49.342;10.802;2023-08-21T13:25:24;32.20;99.90
11152;DHT22;5630;49.342;10.802;2023-08-21T13:27:51;31.90;99.90
11152;DHT22;5630;49.342;10.802;2023-08-21T13:30:17;31.80;99.90
11152;DHT22;5630;49.342;10.802;2023-08-21T13:32:43;31.90;99.90
11152;DHT22;5630;49.342;10.802;2023-08-21T13:35:09;32.10;99.90
11152;DHT22;5630;49.342;10.802;2023-08-21T13:37:39;32.30;99.90
11152;DHT22;5630;49.342;10.802;2023-08-21T13:40:05;32.50;99.90
11152;DHT22;5630;49.342;10.802;2023-08-21T13:42:40;32.80;99.90
11152;DHT22;5630;49.342;10.802;2023-08-21T13:45:10;33.00;99.90
11152;DHT22;5630;49.342;10.802;2023-08-21T13:47:38;33.10;99.90
11152;DHT22;5630;49.342;10.802;2023-08-21T13:50:05;33.00;99.90
11152;DHT22;5630;49.342;10.802;2023-08-21T13:52:31;33.10;99.90
11152;DHT22;5630;49.342;10.802;2023-08-21T13:54:58;33.10;99.90
11152;DHT22;5630;49.342;10.802;2023-08-21T13:57:24;33.20;99.90
11152;DHT22;5630;49.342;10.802;2023-08-21T13:59:50;33.40;99.90
11152;DHT22;5630;49.342;10.802;2023-08-21T14:02:15;33.20;99.90
11152;DHT22;5630;49.342;10.802;2023-08-21T14:04:41;33.10;99.90
11152;DHT22;5630;49.342;10.802;2023-08-21T14:07:06;32.90;99.90
11152;DHT22;5630;49.342;10.802;2023-08-21T14:09:32;32.80;99.90
11152;DHT22;5630;49.342;10.802;2023-08-21T14:11:57;32.30;99.90
11152;DHT22;5630;49.342;10.802;2023-08-21T14:14:23;32.00;99.90
11152;DHT22;5630;49.342;10.802;2023-08-21T14:16:48;32.00;99.90
11152;DHT22;5630;49.342;10.802;2023-08-21T14:19:14;31.80;99.90
11152;DHT22;5630;49.342;10.802;2023-08-21T14:21:39;31.60;99.90
11152;DHT22;5630;49.342;10.802;2023-08-21T14:24:05;31.30;99.90
11152;DHT22;5630;49.342;10.802;2023-08-21T14:26:31;31.50;99.90
11152;DHT22;5630;49.342;10.802;2023-08-21T14:28:56;31.70;99.90
11152;DHT22;5630;49.342;10.802;2023-08-21T14:31:22;31.80;99.90
11152;DHT22;5630;49.342;10.802;2023-08-21T14:33:47;32.00;99.90
11152;DHT22;5630;49.342;10.802;2023-08-21T14:36:13;32.20;99.90
11152;DHT22;5630;49.342;10.802;2023-08-21T14:38:38;32.30;99.90
11152;DHT22;5630;49.342;10.802;2023-08-21T14:41:04;32.40;99.90
11152;DHT22;5630;49.342;10.802;2023-08-21T14:43:29;32.50;99.90
11152;DHT22;5630;49.342;10.802;2023-08-21T14:45:57;32.50;99.90
11152;DHT22;5630;49.342;10.802;2023-08-21T14:48:23;32.50;99.90
11152;DHT22;5630;49.342;10.802;2023-08-21T14:50:49;32.60;99.90
11152;DHT22;5630;49.342;10.802;2023-08-21T14:53:14;32.50;99.90
11152;DHT22;5630;49.342;10.802;2023-08-21T14:55:40;32.50;99.90
11152;DHT22;5630;49.342;10.802;2023-08-21T14:58:05;32.40;99.90
11152;DHT22;5630;49.342;10.802;2023-08-21T15:00:33;32.40;99.90
11152;DHT22;5630;49.342;10.802;2023-08-21T15:02:58;32.40;99.90
11152;DHT22;5630;49.342;10.802;2023-08-21T15:05:26;32.30;99.90
11152;DHT22;5630;49.342;10.802;2023-08-21T15:07:51;32.10;99.90
11152;DHT22;5630;49.342;10.802;2023-08-21T15:10:19;32.10;99.90
11152;DHT22;5630;49.342;10.802;2023-08-21T15:12:45;31.90;99.90
11152;DHT22;5630;49.342;10.802;2023-08-21T15:15:10;31.80;99.90
11152;DHT22;5630;49.342;10.802;2023-08-21T15:17:37;31.90;99.90
11152;DHT22;5630;49.342;10.802;2023-08-21T15:20:03;31.90;99.90
11152;DHT22;5630;49.342;10.802;2023-08-21T15:22:32;32.00;99.90
11152;DHT22;5630;49.342;10.802;2023-08-21T15:24:58;32.00;99.90
11152;DHT22;5630;49.342;10.802;2023-08-21T15:27:24;31.80;99.90
11152;DHT22;5630;49.342;10.802;2023-08-21T15:29:50;31.80;99.90
11152;DHT22;5630;49.342;10.802;2023-08-21T15:32:16;31.60;99.90